sensor_id;sensor_type;location;lat;lon;timestamp;P1;durP1;ratioP1;P2;durP2;ratioP2
18804;SDS011;9530;48.930;9.526;2023-02-01T00:00:10;4.43;;;2.53;;
18804;SDS011;9530;48.930;9.526;2023-02-01T00:02:38;4.37;;;2.83;;
18804;SDS011;9530;48.930;9.526;2023-02-01T00:05:06;4.63;;;2.67;;
18804;SDS011;9530;48.930;9.526;2023-02-01T00:07:33;5.20;;;2.87;;
18804;SDS011;9530;48.930;9.526;2023-02-01T00:10:00;3.80;;;2.80;;
18804;SDS011;9530;48.930;9.526;2023-02-01T00:12:28;4.47;;;2.63;;
18804;SDS011;9530;48.930;9.526;2023-02-01T00:14:55;3.87;;;3.07;;
18804;SDS011;9530;48.930;9.526;2023-02-01T00:17:23;8.17;;;2.60;;
18804;SDS011;9530;48.930;9.526;2023-02-01T00:19:50;4.23;;;2.80;;
18804;SDS011;9530;48.930;9.526;2023-02-01T00:22:17;4.33;;;2.73;;
18804;SDS011;9530;48.930;9.526;2023-02-01T00:24:43;3.87;;;3.03;;
18804;SDS011;9530;48.930;9.526;2023-02-01T00:27:10;4.23;;;3.00;;
18804;SDS011;9530;48.930;9.526;2023-02-01T00:29:42;3.60;;;3.17;;
18804;SDS011;9530;48.930;9.526;2023-02-01T00:32:09;5.10;;;2.70;;
18804;SDS011;9530;48.930;9.526;2023-02-01T00:34:37;4.20;;;2.93;;
18804;SDS011;9530;48.930;9.526;2023-02-01T00:37:04;3.60;;;2.77;;
18804;SDS011;9530;48.930;9.526;2023-02-01T00:39:31;4.27;;;2.60;;
18804;SDS011;9530;48.930;9.526;2023-02-01T00:41:57;3.97;;;2.80;;
18804;SDS011;9530;48.930;9.526;2023-02-01T00:44:26;3.90;;;2.90;;
18804;SDS011;9530;48.930;9.526;2023-02-01T00:46:52;3.90;;;2.77;;
18804;SDS011;9530;48.930;9.526;2023-02-01T00:49:19;3.90;;;2.73;;
18804;SDS011;9530;48.930;9.526;2023-02-01T00:51:48;4.73;;;3.00;;
18804;SDS011;9530;48.930;9.526;2023-02-01T00:54:14;3.73;;;2.80;;
18804;SDS011;9530;48.930;9.526;2023-02-01T00:56:41;3.10;;;2.60;;
18804;SDS011;9530;48.930;9.526;2023-02-01T00:59:10;3.23;;;2.63;;
18804;SDS011;9530;48.930;9.526;2023-02-01T01:01:37;3.87;;;2.27;;
18804;SDS011;9530;48.930;9.526;2023-02-01T01:04:04;3.20;;;2.60;;
18804;SDS011;9530;48.930;9.526;2023-02-01T01:06:31;2.50;;;2.20;;
18804;SDS011;9530;48.930;9.526;2023-02-01T01:09:00;3.20;;;2.60;;
18804;SDS011;9530;48.930;9.526;2023-02-01T01:11:30;3.30;;;2.47;;
18804;SDS011;9530;48.930;9.526;2023-02-01T01:13:58;3.60;;;2.20;;
18804;SDS011;9530;48.930;9.526;2023-02-01T01:16:26;2.60;;;2.07;;
18804;SDS011;9530;48.930;9.526;2023-02-01T01:18:55;3.17;;;2.17;;
18804;SDS011;9530;48.930;9.526;2023-02-01T01:21:22;4.90;;;2.17;;
18804;SDS011;9530;48.930;9.526;2023-02-01T01:23:49;5.40;;;3.13;;
18804;SDS011;9530;48.930;9.526;2023-02-01T01:26:19;3.23;;;2.30;;
18804;SDS011;9530;48.930;9.526;2023-02-01T01:28:47;2.70;;;1.90;;
18804;SDS011;9530;48.930;9.526;2023-02-01T01:31:15;3.30;;;2.10;;
18804;SDS011;9530;48.930;9.526;2023-02-01T01:33:42;3.30;;;2.10;;
18804;SDS011;9530;48.930;9.526;2023-02-01T01:36:10;2.80;;;2.20;;
18804;SDS011;9530;48.930;9.526;2023-02-01T01:38:37;2.73;;;2.00;;
18804;SDS011;9530;48.930;9.526;2023-02-01T01:41:04;2.33;;;2.00;;
18804;SDS011;9530;48.930;9.526;2023-02-01T01:43:47;2.37;;;2.00;;
18804;SDS011;9530;48.930;9.526;2023-02-01T01:46:17;3.03;;;2.20;;
18804;SDS011;9530;48.930;9.526;2023-02-01T01:48:44;2.80;;;2.20;;
18804;SDS011;9530;48.930;9.526;2023-02-01T01:51:14;3.10;;;1.97;;
18804;SDS011;9530;48.930;9.526;2023-02-01T01:53:44;2.60;;;1.90;;
18804;SDS011;9530;48.930;9.526;2023-02-01T01:56:14;3.17;;;1.80;;
18804;SDS011;9530;48.930;9.526;2023-02-01T01:58:41;2.37;;;2.00;;
18804;SDS011;9530;48.930;9.526;2023-02-01T02:01:09;3.23;;;1.97;;
18804;SDS011;9530;48.930;9.526;2023-02-01T02:03:37;2.30;;;1.80;;
18804;SDS011;9530;48.930;9.526;2023-02-01T02:06:09;2.77;;;1.80;;
18804;SDS011;9530;48.930;9.526;2023-02-01T02:08:40;2.73;;;1.80;;
18804;SDS011;9530;48.930;9.526;2023-02-01T02:11:07;2.23;;;1.70;;
18804;SDS011;9530;48.930;9.526;2023-02-01T02:13:36;2.20;;;1.63;;
18804;SDS011;9530;48.930;9.526;2023-02-01T02:16:08;2.20;;;1.77;;
18804;SDS011;9530;48.930;9.526;2023-02-01T02:18:57;2.37;;;1.87;;
18804;SDS011;9530;48.930;9.526;2023-02-01T02:21:38;2.13;;;1.50;;
18804;SDS011;9530;48.930;9.526;2023-02-01T02:24:24;2.43;;;1.60;;
18804;SDS011;9530;48.930;9.526;2023-02-01T02:27:10;1.50;;;1.40;;
18804;SDS011;9530;48.930;9.526;2023-02-01T02:29:57;1.40;;;1.30;;
18804;SDS011;9530;48.930;9.526;2023-02-01T02:35:59;2.23;;;1.60;;
18804;SDS011;9530;48.930;9.526;2023-02-01T02:38:30;2.87;;;1.67;;
18804;SDS011;9530;48.930;9.526;2023-02-01T02:41:16;2.13;;;1.60;;
18804;SDS011;9530;48.930;9.526;2023-02-01T02:44:00;2.40;;;1.60;;
18804;SDS011;9530;48.930;9.526;2023-02-01T02:46:53;2.13;;;1.83;;
18804;SDS011;9530;48.930;9.526;2023-02-01T02:49:44;2.53;;;1.43;;
18804;SDS011;9530;48.930;9.526;2023-02-01T02:52:49;3.17;;;1.93;;
18804;SDS011;9530;48.930;9.526;2023-02-01T02:55:40;1.80;;;1.50;;
18804;SDS011;9530;48.930;9.526;2023-02-01T02:58:07;2.43;;;1.50;;
18804;SDS011;9530;48.930;9.526;2023-02-01T03:00:53;2.20;;;1.80;;
18804;SDS011;9530;48.930;9.526;2023-02-01T03:03:40;1.90;;;1.40;;
18804;SDS011;9530;48.930;9.526;2023-02-01T03:06:24;2.53;;;1.90;;
18804;SDS011;9530;48.930;9.526;2023-02-01T03:08:52;2.20;;;1.70;;
18804;SDS011;9530;48.930;9.526;2023-02-01T03:11:24;1.90;;;1.60;;
18804;SDS011;9530;48.930;9.526;2023-02-01T03:14:12;1.70;;;1.40;;
18804;SDS011;9530;48.930;9.526;2023-02-01T03:16:40;2.10;;;1.50;;
18804;SDS011;9530;48.930;9.526;2023-02-01T03:19:11;1.80;;;1.40;;
18804;SDS011;9530;48.930;9.526;2023-02-01T03:21:43;2.27;;;1.60;;
18804;SDS011;9530;48.930;9.526;2023-02-01T03:24:14;2.70;;;1.50;;
18804;SDS011;9530;48.930;9.526;2023-02-01T03:26:46;4.13;;;1.60;;
18804;SDS011;9530;48.930;9.526;2023-02-01T03:29:17;2.30;;;1.70;;
18804;SDS011;9530;48.930;9.526;2023-02-01T03:31:48;2.83;;;1.60;;
18804;SDS011;9530;48.930;9.526;2023-02-01T03:34:14;2.00;;;1.40;;
18804;SDS011;9530;48.930;9.526;2023-02-01T03:36:43;1.67;;;1.50;;
18804;SDS011;9530;48.930;9.526;2023-02-01T03:39:16;2.37;;;1.63;;
18804;SDS011;9530;48.930;9.526;2023-02-01T03:41:49;2.63;;;1.50;;
18804;SDS011;9530;48.930;9.526;2023-02-01T03:44:19;2.17;;;1.70;;
18804;SDS011;9530;48.930;9.526;2023-02-01T03:46:49;1.60;;;1.40;;
18804;SDS011;9530;48.930;9.526;2023-02-01T03:49:20;2.00;;;1.60;;
18804;SDS011;9530;48.930;9.526;2023-02-01T03:51:51;4.03;;;1.93;;
18804;SDS011;9530;48.930;9.526;2023-02-01T03:54:19;2.37;;;1.63;;
18804;SDS011;9530;48.930;9.526;2023-02-01T03:56:47;2.00;;;1.80;;
18804;SDS011;9530;48.930;9.526;2023-02-01T03:59:16;1.97;;;1.40;;
18804;SDS011;9530;48.930;9.526;2023-02-01T04:01:43;1.90;;;1.70;;
18804;SDS011;9530;48.930;9.526;2023-02-01T04:04:10;1.77;;;1.63;;
18804;SDS011;9530;48.930;9.526;2023-02-01T04:06:44;2.33;;;1.80;;
18804;SDS011;9530;48.930;9.526;2023-02-01T04:09:11;2.23;;;1.80;;
18804;SDS011;9530;48.930;9.526;2023-02-01T04:11:39;4.03;;;2.20;;
18804;SDS011;9530;48.930;9.526;2023-02-01T04:14:06;4.27;;;2.00;;
18804;SDS011;9530;48.930;9.526;2023-02-01T04:16:32;2.33;;;2.00;;
18804;SDS011;9530;48.930;9.526;2023-02-01T04:19:00;2.27;;;2.00;;
18804;SDS011;9530;48.930;9.526;2023-02-01T04:21:27;2.73;;;2.10;;
18804;SDS011;9530;48.930;9.526;2023-02-01T04:23:54;2.53;;;2.00;;
18804;SDS011;9530;48.930;9.526;2023-02-01T04:26:20;2.00;;;1.80;;
18804;SDS011;9530;48.930;9.526;2023-02-01T04:28:48;2.90;;;1.90;;
18804;SDS011;9530;48.930;9.526;2023-02-01T04:31:16;2.23;;;1.77;;
18804;SDS011;9530;48.930;9.526;2023-02-01T04:33:50;3.27;;;2.60;;
18804;SDS011;9530;48.930;9.526;2023-02-01T04:36:17;3.50;;;2.40;;
18804;SDS011;9530;48.930;9.526;2023-02-01T04:38:44;4.70;;;2.03;;
18804;SDS011;9530;48.930;9.526;2023-02-01T04:41:11;2.27;;;2.00;;
18804;SDS011;9530;48.930;9.526;2023-02-01T04:43:38;2.40;;;2.20;;
18804;SDS011;9530;48.930;9.526;2023-02-01T04:46:06;2.50;;;2.10;;
18804;SDS011;9530;48.930;9.526;2023-02-01T04:48:32;2.40;;;2.03;;
18804;SDS011;9530;48.930;9.526;2023-02-01T04:50:59;2.40;;;2.20;;
18804;SDS011;9530;48.930;9.526;2023-02-01T04:53:26;2.73;;;2.10;;
18804;SDS011;9530;48.930;9.526;2023-02-01T04:55:53;2.27;;;1.93;;
18804;SDS011;9530;48.930;9.526;2023-02-01T04:58:19;2.93;;;1.80;;
18804;SDS011;9530;48.930;9.526;2023-02-01T05:00:46;2.43;;;1.60;;
18804;SDS011;9530;48.930;9.526;2023-02-01T05:03:15;2.80;;;2.00;;
18804;SDS011;9530;48.930;9.526;2023-02-01T05:05:42;2.37;;;1.97;;
18804;SDS011;9530;48.930;9.526;2023-02-01T05:08:09;2.43;;;2.10;;
18804;SDS011;9530;48.930;9.526;2023-02-01T05:10:35;4.30;;;2.10;;
18804;SDS011;9530;48.930;9.526;2023-02-01T05:13:02;2.43;;;1.90;;
18804;SDS011;9530;48.930;9.526;2023-02-01T05:15:46;4.13;;;2.23;;
18804;SDS011;9530;48.930;9.526;2023-02-01T05:18:13;4.53;;;2.70;;
18804;SDS011;9530;48.930;9.526;2023-02-01T05:20:41;1.90;;;1.73;;
18804;SDS011;9530;48.930;9.526;2023-02-01T05:23:08;3.73;;;2.10;;
18804;SDS011;9530;48.930;9.526;2023-02-01T05:25:34;3.60;;;2.13;;
18804;SDS011;9530;48.930;9.526;2023-02-01T05:28:01;3.77;;;2.20;;
18804;SDS011;9530;48.930;9.526;2023-02-01T05:30:28;4.37;;;2.53;;
18804;SDS011;9530;48.930;9.526;2023-02-01T05:32:54;4.17;;;2.47;;
18804;SDS011;9530;48.930;9.526;2023-02-01T05:35:21;2.93;;;2.50;;
18804;SDS011;9530;48.930;9.526;2023-02-01T05:37:49;2.93;;;2.20;;
18804;SDS011;9530;48.930;9.526;2023-02-01T05:40:16;3.20;;;2.40;;
18804;SDS011;9530;48.930;9.526;2023-02-01T05:42:43;4.00;;;2.83;;
18804;SDS011;9530;48.930;9.526;2023-02-01T05:45:09;3.97;;;2.90;;
18804;SDS011;9530;48.930;9.526;2023-02-01T05:47:36;5.17;;;3.20;;
18804;SDS011;9530;48.930;9.526;2023-02-01T05:50:04;3.20;;;2.23;;
18804;SDS011;9530;48.930;9.526;2023-02-01T05:52:31;4.17;;;2.40;;
18804;SDS011;9530;48.930;9.526;2023-02-01T05:54:59;3.90;;;2.57;;
18804;SDS011;9530;48.930;9.526;2023-02-01T05:57:26;3.63;;;2.20;;
18804;SDS011;9530;48.930;9.526;2023-02-01T05:59:53;2.43;;;2.13;;
18804;SDS011;9530;48.930;9.526;2023-02-01T06:02:20;3.40;;;2.30;;
18804;SDS011;9530;48.930;9.526;2023-02-01T06:04:49;3.13;;;2.00;;
18804;SDS011;9530;48.930;9.526;2023-02-01T06:07:15;3.77;;;2.20;;
18804;SDS011;9530;48.930;9.526;2023-02-01T06:09:42;2.97;;;2.20;;
18804;SDS011;9530;48.930;9.526;2023-02-01T06:12:10;3.10;;;2.47;;
18804;SDS011;9530;48.930;9.526;2023-02-01T06:14:37;3.93;;;2.63;;
18804;SDS011;9530;48.930;9.526;2023-02-01T06:17:03;6.40;;;4.30;;
18804;SDS011;9530;48.930;9.526;2023-02-01T06:19:31;4.70;;;3.23;;
18804;SDS011;9530;48.930;9.526;2023-02-01T06:21:58;3.57;;;2.40;;
18804;SDS011;9530;48.930;9.526;2023-02-01T06:24:25;5.57;;;3.30;;
18804;SDS011;9530;48.930;9.526;2023-02-01T06:26:51;4.93;;;3.47;;
18804;SDS011;9530;48.930;9.526;2023-02-01T06:29:19;3.53;;;2.80;;
18804;SDS011;9530;48.930;9.526;2023-02-01T06:31:46;3.13;;;2.37;;
18804;SDS011;9530;48.930;9.526;2023-02-01T06:34:13;3.80;;;2.70;;
18804;SDS011;9530;48.930;9.526;2023-02-01T06:36:39;2.93;;;2.30;;
18804;SDS011;9530;48.930;9.526;2023-02-01T06:39:06;2.87;;;2.33;;
18804;SDS011;9530;48.930;9.526;2023-02-01T06:41:33;4.03;;;2.50;;
18804;SDS011;9530;48.930;9.526;2023-02-01T06:43:59;4.07;;;2.50;;
18804;SDS011;9530;48.930;9.526;2023-02-01T06:46:27;4.47;;;2.60;;
18804;SDS011;9530;48.930;9.526;2023-02-01T06:48:54;6.23;;;2.50;;
18804;SDS011;9530;48.930;9.526;2023-02-01T06:51:21;3.07;;;2.20;;
18804;SDS011;9530;48.930;9.526;2023-02-01T06:53:49;4.73;;;2.40;;
18804;SDS011;9530;48.930;9.526;2023-02-01T06:56:16;3.70;;;2.40;;
18804;SDS011;9530;48.930;9.526;2023-02-01T06:58:43;3.83;;;2.53;;
18804;SDS011;9530;48.930;9.526;2023-02-01T07:01:10;2.50;;;2.30;;
18804;SDS011;9530;48.930;9.526;2023-02-01T07:03:39;5.17;;;3.10;;
18804;SDS011;9530;48.930;9.526;2023-02-01T07:06:06;4.53;;;2.90;;
18804;SDS011;9530;48.930;9.526;2023-02-01T07:08:34;3.40;;;2.20;;
18804;SDS011;9530;48.930;9.526;2023-02-01T07:11:03;3.37;;;2.50;;
18804;SDS011;9530;48.930;9.526;2023-02-01T07:13:30;4.77;;;2.30;;
18804;SDS011;9530;48.930;9.526;2023-02-01T07:15:58;3.33;;;2.23;;
18804;SDS011;9530;48.930;9.526;2023-02-01T07:18:25;4.23;;;2.43;;
18804;SDS011;9530;48.930;9.526;2023-02-01T07:20:54;4.07;;;2.80;;
18804;SDS011;9530;48.930;9.526;2023-02-01T07:23:21;3.50;;;2.63;;
18804;SDS011;9530;48.930;9.526;2023-02-01T07:25:48;5.93;;;3.30;;
18804;SDS011;9530;48.930;9.526;2023-02-01T07:28:15;6.10;;;3.50;;
18804;SDS011;9530;48.930;9.526;2023-02-01T07:30:41;7.87;;;3.60;;
18804;SDS011;9530;48.930;9.526;2023-02-01T07:33:08;7.13;;;4.00;;
18804;SDS011;9530;48.930;9.526;2023-02-01T07:35:35;8.67;;;4.00;;
18804;SDS011;9530;48.930;9.526;2023-02-01T07:38:03;7.40;;;4.70;;
18804;SDS011;9530;48.930;9.526;2023-02-01T07:40:30;8.97;;;4.20;;
18804;SDS011;9530;48.930;9.526;2023-02-01T07:42:56;8.23;;;4.60;;
18804;SDS011;9530;48.930;9.526;2023-02-01T07:45:24;9.03;;;4.70;;
18804;SDS011;9530;48.930;9.526;2023-02-01T07:47:51;9.33;;;4.77;;
18804;SDS011;9530;48.930;9.526;2023-02-01T07:50:18;8.53;;;4.23;;
18804;SDS011;9530;48.930;9.526;2023-02-01T07:52:45;10.10;;;4.90;;
18804;SDS011;9530;48.930;9.526;2023-02-01T07:55:13;13.63;;;5.73;;
18804;SDS011;9530;48.930;9.526;2023-02-01T07:57:39;10.77;;;5.30;;
18804;SDS011;9530;48.930;9.526;2023-02-01T08:00:07;9.67;;;5.33;;
18804;SDS011;9530;48.930;9.526;2023-02-01T08:02:52;12.10;;;4.43;;
18804;SDS011;9530;48.930;9.526;2023-02-01T08:05:19;9.30;;;4.90;;
18804;SDS011;9530;48.930;9.526;2023-02-01T08:07:48;8.20;;;4.83;;
18804;SDS011;9530;48.930;9.526;2023-02-01T08:10:16;10.07;;;5.37;;
18804;SDS011;9530;48.930;9.526;2023-02-01T08:12:43;11.80;;;6.60;;
18804;SDS011;9530;48.930;9.526;2023-02-01T08:15:12;12.17;;;6.80;;
18804;SDS011;9530;48.930;9.526;2023-02-01T08:17:40;12.23;;;5.37;;
18804;SDS011;9530;48.930;9.526;2023-02-01T08:20:12;14.33;;;7.60;;
18804;SDS011;9530;48.930;9.526;2023-02-01T08:22:39;14.03;;;5.73;;
18804;SDS011;9530;48.930;9.526;2023-02-01T08:25:06;17.97;;;6.03;;
18804;SDS011;9530;48.930;9.526;2023-02-01T08:27:35;12.70;;;5.53;;
18804;SDS011;9530;48.930;9.526;2023-02-01T08:30:02;10.87;;;5.20;;
18804;SDS011;9530;48.930;9.526;2023-02-01T08:32:29;29.43;;;12.87;;
18804;SDS011;9530;48.930;9.526;2023-02-01T08:34:56;28.50;;;12.77;;
18804;SDS011;9530;48.930;9.526;2023-02-01T08:37:23;19.77;;;9.20;;
18804;SDS011;9530;48.930;9.526;2023-02-01T08:39:49;25.17;;;12.80;;
18804;SDS011;9530;48.930;9.526;2023-02-01T08:42:16;28.93;;;14.47;;
18804;SDS011;9530;48.930;9.526;2023-02-01T08:45:02;15.60;;;5.53;;
18804;SDS011;9530;48.930;9.526;2023-02-01T08:47:30;19.77;;;8.73;;
18804;SDS011;9530;48.930;9.526;2023-02-01T08:49:57;17.07;;;6.27;;
18804;SDS011;9530;48.930;9.526;2023-02-01T08:52:23;18.93;;;8.67;;
18804;SDS011;9530;48.930;9.526;2023-02-01T08:54:50;14.33;;;5.67;;
18804;SDS011;9530;48.930;9.526;2023-02-01T08:57:17;27.00;;;13.30;;
18804;SDS011;9530;48.930;9.526;2023-02-01T08:59:43;9.93;;;5.57;;
18804;SDS011;9530;48.930;9.526;2023-02-01T09:02:12;10.23;;;4.63;;
18804;SDS011;9530;48.930;9.526;2023-02-01T09:04:39;13.00;;;4.97;;
18804;SDS011;9530;48.930;9.526;2023-02-01T09:07:06;12.50;;;4.47;;
18804;SDS011;9530;48.930;9.526;2023-02-01T09:09:34;12.83;;;5.47;;
18804;SDS011;9530;48.930;9.526;2023-02-01T09:12:01;17.47;;;6.13;;
18804;SDS011;9530;48.930;9.526;2023-02-01T09:14:28;10.47;;;3.60;;
18804;SDS011;9530;48.930;9.526;2023-02-01T09:16:55;10.07;;;4.00;;
18804;SDS011;9530;48.930;9.526;2023-02-01T09:19:23;12.63;;;4.10;;
18804;SDS011;9530;48.930;9.526;2023-02-01T09:21:50;9.93;;;4.50;;
18804;SDS011;9530;48.930;9.526;2023-02-01T09:24:16;10.67;;;3.57;;
18804;SDS011;9530;48.930;9.526;2023-02-01T09:26:43;8.80;;;3.70;;
18804;SDS011;9530;48.930;9.526;2023-02-01T09:29:10;10.10;;;4.23;;
18804;SDS011;9530;48.930;9.526;2023-02-01T09:31:36;12.80;;;3.63;;
18804;SDS011;9530;48.930;9.526;2023-02-01T09:34:03;11.07;;;3.63;;
18804;SDS011;9530;48.930;9.526;2023-02-01T09:36:32;8.33;;;3.27;;
18804;SDS011;9530;48.930;9.526;2023-02-01T09:38:59;5.80;;;3.00;;
18804;SDS011;9530;48.930;9.526;2023-02-01T09:41:30;8.17;;;2.97;;
18804;SDS011;9530;48.930;9.526;2023-02-01T09:44:07;7.47;;;3.10;;
18804;SDS011;9530;48.930;9.526;2023-02-01T09:46:43;9.13;;;2.97;;
18804;SDS011;9530;48.930;9.526;2023-02-01T09:49:11;11.30;;;3.90;;
18804;SDS011;9530;48.930;9.526;2023-02-01T09:51:42;12.70;;;3.50;;
18804;SDS011;9530;48.930;9.526;2023-02-01T09:54:12;9.60;;;3.27;;
18804;SDS011;9530;48.930;9.526;2023-02-01T09:56:41;9.80;;;3.33;;
18804;SDS011;9530;48.930;9.526;2023-02-01T09:59:18;11.07;;;3.23;;
18804;SDS011;9530;48.930;9.526;2023-02-01T10:01:55;12.87;;;4.27;;
18804;SDS011;9530;48.930;9.526;2023-02-01T10:04:24;11.20;;;3.20;;
18804;SDS011;9530;48.930;9.526;2023-02-01T10:06:56;8.33;;;3.27;;
18804;SDS011;9530;48.930;9.526;2023-02-01T10:09:33;12.40;;;3.70;;
18804;SDS011;9530;48.930;9.526;2023-02-01T10:12:18;14.27;;;3.60;;
18804;SDS011;9530;48.930;9.526;2023-02-01T10:15:16;12.43;;;3.77;;
18804;SDS011;9530;48.930;9.526;2023-02-01T10:17:55;13.33;;;3.80;;
18804;SDS011;9530;48.930;9.526;2023-02-01T10:20:36;13.70;;;3.70;;
18804;SDS011;9530;48.930;9.526;2023-02-01T10:23:23;12.20;;;3.43;;
18804;SDS011;9530;48.930;9.526;2023-02-01T10:26:02;8.70;;;3.03;;
18804;SDS011;9530;48.930;9.526;2023-02-01T10:28:38;14.33;;;3.70;;
18804;SDS011;9530;48.930;9.526;2023-02-01T10:31:06;12.77;;;3.70;;
18804;SDS011;9530;48.930;9.526;2023-02-01T10:33:36;13.20;;;3.50;;
18804;SDS011;9530;48.930;9.526;2023-02-01T10:36:10;13.00;;;3.30;;
18804;SDS011;9530;48.930;9.526;2023-02-01T10:38:44;10.13;;;3.50;;
18804;SDS011;9530;48.930;9.526;2023-02-01T10:41:12;11.67;;;3.30;;
18804;SDS011;9530;48.930;9.526;2023-02-01T10:43:41;17.13;;;3.70;;
18804;SDS011;9530;48.930;9.526;2023-02-01T10:46:09;14.83;;;4.47;;
18804;SDS011;9530;48.930;9.526;2023-02-01T10:48:36;13.57;;;3.40;;
18804;SDS011;9530;48.930;9.526;2023-02-01T10:51:06;13.83;;;3.70;;
18804;SDS011;9530;48.930;9.526;2023-02-01T10:53:38;15.87;;;3.40;;
18804;SDS011;9530;48.930;9.526;2023-02-01T10:56:12;12.17;;;3.40;;
18804;SDS011;9530;48.930;9.526;2023-02-01T10:58:43;15.27;;;3.93;;
18804;SDS011;9530;48.930;9.526;2023-02-01T11:01:15;14.53;;;3.37;;
18804;SDS011;9530;48.930;9.526;2023-02-01T11:03:44;15.30;;;3.80;;
18804;SDS011;9530;48.930;9.526;2023-02-01T11:06:13;14.90;;;3.30;;
18804;SDS011;9530;48.930;9.526;2023-02-01T11:08:45;13.10;;;3.67;;
18804;SDS011;9530;48.930;9.526;2023-02-01T11:11:15;14.33;;;3.80;;
18804;SDS011;9530;48.930;9.526;2023-02-01T11:13:42;15.20;;;4.00;;
18804;SDS011;9530;48.930;9.526;2023-02-01T11:16:11;10.53;;;3.53;;
18804;SDS011;9530;48.930;9.526;2023-02-01T11:18:39;17.00;;;4.80;;
18804;SDS011;9530;48.930;9.526;2023-02-01T11:21:06;11.43;;;3.40;;
18804;SDS011;9530;48.930;9.526;2023-02-01T11:23:39;11.33;;;3.00;;
18804;SDS011;9530;48.930;9.526;2023-02-01T11:26:09;15.83;;;3.70;;
18804;SDS011;9530;48.930;9.526;2023-02-01T11:28:40;10.60;;;3.20;;
18804;SDS011;9530;48.930;9.526;2023-02-01T11:31:13;15.87;;;3.57;;
18804;SDS011;9530;48.930;9.526;2023-02-01T11:33:43;13.87;;;3.20;;
18804;SDS011;9530;48.930;9.526;2023-02-01T11:36:15;13.00;;;3.70;;
18804;SDS011;9530;48.930;9.526;2023-02-01T11:38:45;12.73;;;3.40;;
18804;SDS011;9530;48.930;9.526;2023-02-01T11:41:20;12.83;;;3.80;;
18804;SDS011;9530;48.930;9.526;2023-02-01T11:43:53;16.40;;;3.57;;
18804;SDS011;9530;48.930;9.526;2023-02-01T11:46:24;11.17;;;3.77;;
18804;SDS011;9530;48.930;9.526;2023-02-01T11:48:54;9.83;;;3.13;;
18804;SDS011;9530;48.930;9.526;2023-02-01T11:51:32;11.97;;;3.73;;
18804;SDS011;9530;48.930;9.526;2023-02-01T11:54:13;12.23;;;3.40;;
18804;SDS011;9530;48.930;9.526;2023-02-01T11:56:54;13.60;;;3.33;;
18804;SDS011;9530;48.930;9.526;2023-02-01T11:59:36;11.10;;;3.30;;
18804;SDS011;9530;48.930;9.526;2023-02-01T12:02:33;11.90;;;4.03;;
18804;SDS011;9530;48.930;9.526;2023-02-01T12:05:15;15.10;;;3.10;;
18804;SDS011;9530;48.930;9.526;2023-02-01T12:07:55;12.13;;;3.30;;
18804;SDS011;9530;48.930;9.526;2023-02-01T12:10:34;12.67;;;3.67;;
18804;SDS011;9530;48.930;9.526;2023-02-01T12:13:14;12.70;;;3.17;;
18804;SDS011;9530;48.930;9.526;2023-02-01T12:16:00;11.17;;;3.30;;
18804;SDS011;9530;48.930;9.526;2023-02-01T12:18:40;11.30;;;2.60;;
18804;SDS011;9530;48.930;9.526;2023-02-01T12:21:29;11.93;;;2.87;;
18804;SDS011;9530;48.930;9.526;2023-02-01T12:24:09;10.60;;;2.50;;
18804;SDS011;9530;48.930;9.526;2023-02-01T12:26:50;9.87;;;3.00;;
18804;SDS011;9530;48.930;9.526;2023-02-01T12:29:30;11.00;;;3.13;;
18804;SDS011;9530;48.930;9.526;2023-02-01T12:32:10;12.47;;;2.83;;
18804;SDS011;9530;48.930;9.526;2023-02-01T12:34:50;9.73;;;2.73;;
18804;SDS011;9530;48.930;9.526;2023-02-01T12:37:33;12.83;;;3.13;;
18804;SDS011;9530;48.930;9.526;2023-02-01T12:40:22;12.20;;;2.70;;
18804;SDS011;9530;48.930;9.526;2023-02-01T12:42:59;10.17;;;2.90;;
18804;SDS011;9530;48.930;9.526;2023-02-01T12:45:30;10.70;;;2.87;;
18804;SDS011;9530;48.930;9.526;2023-02-01T12:48:04;11.90;;;2.67;;
18804;SDS011;9530;48.930;9.526;2023-02-01T12:50:50;11.00;;;3.20;;
18804;SDS011;9530;48.930;9.526;2023-02-01T12:53:22;8.73;;;3.43;;
18804;SDS011;9530;48.930;9.526;2023-02-01T12:55:50;17.17;;;5.80;;
18804;SDS011;9530;48.930;9.526;2023-02-01T12:58:21;11.37;;;3.53;;
18804;SDS011;9530;48.930;9.526;2023-02-01T13:00:53;13.37;;;3.93;;
18804;SDS011;9530;48.930;9.526;2023-02-01T13:03:29;10.53;;;3.07;;
18804;SDS011;9530;48.930;9.526;2023-02-01T13:06:04;16.47;;;7.20;;
18804;SDS011;9530;48.930;9.526;2023-02-01T13:08:36;13.33;;;4.23;;
18804;SDS011;9530;48.930;9.526;2023-02-01T13:11:09;11.60;;;3.37;;
18804;SDS011;9530;48.930;9.526;2023-02-01T13:13:44;15.03;;;4.30;;
18804;SDS011;9530;48.930;9.526;2023-02-01T13:16:15;11.30;;;3.90;;
18804;SDS011;9530;48.930;9.526;2023-02-01T13:18:49;8.93;;;3.10;;
18804;SDS011;9530;48.930;9.526;2023-02-01T13:21:18;14.07;;;2.90;;
18804;SDS011;9530;48.930;9.526;2023-02-01T13:23:49;11.70;;;3.03;;
18804;SDS011;9530;48.930;9.526;2023-02-01T13:26:18;13.00;;;2.90;;
18804;SDS011;9530;48.930;9.526;2023-02-01T13:28:45;8.77;;;3.20;;
18804;SDS011;9530;48.930;9.526;2023-02-01T13:34:32;13.03;;;3.07;;
18804;SDS011;9530;48.930;9.526;2023-02-01T13:37:23;10.87;;;3.43;;
18804;SDS011;9530;48.930;9.526;2023-02-01T13:42:55;13.93;;;4.13;;
18804;SDS011;9530;48.930;9.526;2023-02-01T13:45:24;9.97;;;2.83;;
18804;SDS011;9530;48.930;9.526;2023-02-01T13:47:53;11.63;;;3.80;;
18804;SDS011;9530;48.930;9.526;2023-02-01T13:50:24;13.97;;;3.23;;
18804;SDS011;9530;48.930;9.526;2023-02-01T13:52:56;10.90;;;3.07;;
18804;SDS011;9530;48.930;9.526;2023-02-01T13:55:34;18.50;;;3.77;;
18804;SDS011;9530;48.930;9.526;2023-02-01T13:58:10;13.17;;;4.40;;
18804;SDS011;9530;48.930;9.526;2023-02-01T14:00:41;10.30;;;2.83;;
18804;SDS011;9530;48.930;9.526;2023-02-01T14:03:16;13.67;;;3.63;;
18804;SDS011;9530;48.930;9.526;2023-02-01T14:05:56;12.83;;;3.80;;
18804;SDS011;9530;48.930;9.526;2023-02-01T14:08:44;14.97;;;4.27;;
18804;SDS011;9530;48.930;9.526;2023-02-01T14:11:35;9.93;;;3.30;;
18804;SDS011;9530;48.930;9.526;2023-02-01T14:23:13;11.43;;;3.10;;
18804;SDS011;9530;48.930;9.526;2023-02-01T14:25:46;11.33;;;3.40;;
18804;SDS011;9530;48.930;9.526;2023-02-01T14:28:24;7.23;;;2.97;;
18804;SDS011;9530;48.930;9.526;2023-02-01T14:30:54;11.97;;;3.37;;
18804;SDS011;9530;48.930;9.526;2023-02-01T14:33:24;11.80;;;3.20;;
18804;SDS011;9530;48.930;9.526;2023-02-01T14:35:55;8.63;;;2.63;;
18804;SDS011;9530;48.930;9.526;2023-02-01T14:38:30;12.17;;;2.93;;
18804;SDS011;9530;48.930;9.526;2023-02-01T14:41:10;11.50;;;3.10;;
18804;SDS011;9530;48.930;9.526;2023-02-01T14:43:51;16.23;;;3.33;;
18804;SDS011;9530;48.930;9.526;2023-02-01T14:50:10;11.63;;;3.70;;
18804;SDS011;9530;48.930;9.526;2023-02-01T14:52:46;12.40;;;3.33;;
18804;SDS011;9530;48.930;9.526;2023-02-01T14:55:21;10.87;;;3.40;;
18804;SDS011;9530;48.930;9.526;2023-02-01T14:57:53;14.67;;;3.73;;
18804;SDS011;9530;48.930;9.526;2023-02-01T15:00:24;9.17;;;3.73;;
18804;SDS011;9530;48.930;9.526;2023-02-01T15:02:53;14.27;;;4.07;;
18804;SDS011;9530;48.930;9.526;2023-02-01T15:05:27;15.67;;;3.80;;
18804;SDS011;9530;48.930;9.526;2023-02-01T15:07:57;9.17;;;3.53;;
18804;SDS011;9530;48.930;9.526;2023-02-01T15:10:31;13.47;;;3.47;;
18804;SDS011;9530;48.930;9.526;2023-02-01T15:13:05;10.60;;;3.50;;
18804;SDS011;9530;48.930;9.526;2023-02-01T15:15:31;8.83;;;3.13;;
18804;SDS011;9530;48.930;9.526;2023-02-01T15:18:01;10.87;;;3.10;;
18804;SDS011;9530;48.930;9.526;2023-02-01T15:20:28;7.40;;;2.73;;
18804;SDS011;9530;48.930;9.526;2023-02-01T15:22:58;11.50;;;2.53;;
18804;SDS011;9530;48.930;9.526;2023-02-01T15:25:27;10.00;;;3.07;;
18804;SDS011;9530;48.930;9.526;2023-02-01T15:27:57;12.33;;;2.90;;
18804;SDS011;9530;48.930;9.526;2023-02-01T15:30:25;13.57;;;3.60;;
18804;SDS011;9530;48.930;9.526;2023-02-01T15:33:03;10.83;;;3.13;;
18804;SDS011;9530;48.930;9.526;2023-02-01T15:35:36;10.47;;;3.60;;
18804;SDS011;9530;48.930;9.526;2023-02-01T15:41:01;12.10;;;3.60;;
18804;SDS011;9530;48.930;9.526;2023-02-01T15:43:33;11.80;;;3.20;;